createdAt,value
2018-08-07T00:02:19.905Z,16.30
2018-08-07T00:04:48.352Z,14.90
2018-08-07T00:07:16.828Z,15.60
2018-08-07T00:09:45.244Z,15.27
2018-08-07T00:12:13.809Z,16.20
2018-08-07T00:14:42.350Z,15.23
2018-08-07T00:17:10.833Z,15.33
2018-08-07T00:19:39.251Z,15.53
2018-08-07T00:22:07.645Z,16.40
2018-08-07T00:24:35.739Z,15.07
2018-08-07T00:27:04.170Z,15.33
2018-08-07T00:29:32.600Z,15.93
2018-08-07T00:32:01.092Z,17.87
2018-08-07T00:34:29.577Z,15.63
2018-08-07T00:36:58.067Z,15.33
2018-08-07T00:39:26.481Z,17.00
2018-08-07T00:41:55.021Z,17.57
2018-08-07T00:44:24.164Z,16.73
2018-08-07T00:46:52.651Z,17.23
2018-08-07T00:49:22.042Z,16.10
2018-08-07T00:51:50.476Z,16.40
2018-08-07T00:54:18.900Z,16.40
2018-08-07T00:56:47.349Z,16.53
2018-08-07T00:59:15.728Z,16.53
2018-08-07T01:01:44.164Z,16.80
2018-08-07T01:04:12.617Z,17.17
2018-08-07T01:06:41.029Z,16.00
2018-08-07T01:09:10.156Z,16.67
2018-08-07T01:11:38.557Z,17.73
2018-08-07T01:14:07.027Z,16.80
2018-08-07T01:16:35.507Z,17.00
2018-08-07T01:19:03.920Z,16.40
2018-08-07T01:21:32.347Z,16.47
2018-08-07T01:24:00.732Z,17.00
2018-08-07T01:26:29.151Z,16.03
2018-08-07T01:28:57.690Z,18.90
2018-08-07T01:31:26.157Z,17.17
2018-08-07T01:33:54.536Z,17.47
2018-08-07T01:36:22.974Z,17.53
2018-08-07T01:38:51.410Z,16.80
2018-08-07T01:41:19.824Z,17.87
2018-08-07T01:43:48.323Z,17.17
2018-08-07T01:46:17.030Z,17.77
2018-08-07T01:48:45.212Z,17.30
2018-08-07T01:51:13.636Z,17.10
2018-08-07T01:53:42.042Z,18.17
2018-08-07T01:56:10.431Z,17.07
2018-08-07T01:58:38.842Z,17.40
2018-08-07T02:01:07.247Z,17.83
2018-08-07T02:03:35.660Z,17.90
2018-08-07T02:06:04.174Z,18.30
2018-08-07T02:08:32.672Z,18.37
2018-08-07T02:11:01.111Z,18.50
2018-08-07T02:13:29.574Z,23.83
2018-08-07T02:15:58.051Z,18.80
2018-08-07T02:18:26.448Z,19.70
2018-08-07T02:20:54.993Z,19.90
2018-08-07T02:23:23.353Z,20.10
2018-08-07T02:25:51.816Z,19.57
2018-08-07T02:28:20.247Z,19.33
2018-08-07T02:30:48.677Z,20.37
2018-08-07T02:33:17.106Z,21.80
2018-08-07T02:35:45.601Z,20.60
2018-08-07T02:38:13.992Z,21.12
2018-08-07T02:40:42.433Z,21.30
2018-08-07T02:43:10.855Z,20.40
2018-08-07T02:45:39.329Z,21.63
2018-08-07T02:48:07.812Z,20.10
2018-08-07T02:50:36.303Z,21.43
2018-08-07T02:53:04.697Z,21.57
2018-08-07T02:55:33.106Z,21.73
2018-08-07T02:58:01.539Z,20.20
2018-08-07T03:00:34.213Z,20.90
2018-08-07T03:03:02.635Z,20.40
2018-08-07T03:05:31.035Z,25.20
2018-08-07T03:07:59.453Z,21.40
2018-08-07T03:10:27.841Z,20.10
2018-08-07T03:12:56.253Z,20.70
2018-08-07T03:15:24.649Z,20.57
2018-08-07T03:17:53.069Z,20.40
2018-08-07T03:20:21.432Z,21.20
2018-08-07T03:22:49.929Z,20.33
2018-08-07T03:25:18.388Z,21.57
2018-08-07T03:27:46.989Z,21.50
2018-08-07T03:30:19.924Z,22.60
2018-08-07T03:32:48.848Z,20.37
2018-08-07T03:35:17.286Z,20.40
2018-08-07T03:37:45.780Z,20.30
2018-08-07T03:40:16.131Z,21.07
2018-08-07T03:42:44.637Z,21.47
2018-08-07T03:45:14.306Z,22.60
2018-08-07T03:47:43.339Z,21.07
2018-08-07T03:50:11.985Z,20.77
2018-08-07T03:52:40.546Z,27.23
2018-08-07T03:55:11.460Z,23.17
2018-08-07T03:57:40.415Z,23.23
2018-08-07T04:00:12.676Z,21.77
2018-08-07T04:02:41.160Z,21.93
2018-08-07T04:05:09.650Z,20.77
2018-08-07T04:07:38.288Z,21.70
2018-08-07T04:10:08.808Z,20.80
2018-08-07T04:12:37.280Z,20.13
2018-08-07T04:15:07.010Z,21.57
2018-08-07T04:17:35.574Z,21.97
2018-08-07T04:20:04.705Z,22.70
2018-08-07T04:22:33.098Z,22.43
2018-08-07T04:25:01.524Z,21.53
2018-08-07T04:27:29.928Z,21.77
2018-08-07T04:29:58.379Z,22.70
2018-08-07T04:32:26.740Z,24.03
2018-08-07T04:34:55.112Z,23.80
2018-08-07T04:37:23.519Z,21.93
2018-08-07T04:39:51.920Z,26.93
2018-08-07T04:42:20.317Z,23.73
2018-08-07T04:44:48.794Z,23.53
2018-08-07T04:47:17.241Z,23.50
2018-08-07T04:49:45.652Z,22.30
2018-08-07T04:52:14.057Z,22.13
2018-08-07T04:54:42.427Z,20.97
2018-08-07T04:57:10.806Z,25.27
2018-08-07T04:59:39.224Z,22.93
2018-08-07T05:02:07.681Z,22.97
2018-08-07T05:04:36.098Z,22.80
2018-08-07T05:07:04.801Z,22.57
2018-08-07T05:09:33.172Z,22.47
2018-08-07T05:12:01.267Z,21.13
2018-08-07T05:14:29.717Z,22.27
2018-08-07T05:16:58.124Z,21.63
2018-08-07T05:19:26.547Z,21.77
2018-08-07T05:21:54.921Z,21.80
2018-08-07T05:24:23.284Z,22.90
2018-08-07T05:26:51.823Z,20.93
2018-08-07T05:29:20.233Z,23.13
2018-08-07T05:31:48.658Z,21.27
2018-08-07T05:34:17.153Z,22.13
2018-08-07T05:36:45.583Z,23.03
2018-08-07T05:39:14.017Z,22.00
2018-08-07T05:41:42.560Z,22.33
2018-08-07T05:44:10.976Z,21.60
2018-08-07T05:46:39.356Z,24.97
2018-08-07T05:49:07.759Z,21.10
2018-08-07T05:51:36.218Z,22.50
2018-08-07T05:54:04.668Z,22.37
2018-08-07T05:56:33.073Z,20.50
2018-08-07T05:59:01.456Z,22.97
2018-08-07T06:01:29.947Z,22.33
2018-08-07T06:03:58.361Z,22.30
2018-08-07T06:06:26.803Z,21.90
2018-08-07T06:08:55.280Z,22.23
2018-08-07T06:11:23.758Z,23.00
2018-08-07T06:13:52.207Z,23.73
2018-08-07T06:16:20.697Z,21.83
2018-08-07T06:18:49.102Z,22.77
2018-08-07T06:21:17.496Z,22.57
2018-08-07T06:23:45.932Z,22.77
2018-08-07T06:26:14.405Z,22.43
2018-08-07T06:28:42.916Z,21.60
2018-08-07T06:31:11.224Z,22.07
2018-08-07T06:33:39.634Z,21.70
2018-08-07T06:36:08.148Z,19.53
2018-08-07T06:38:36.531Z,20.90
2018-08-07T06:41:04.916Z,20.90
2018-08-07T06:43:33.402Z,22.40
2018-08-07T06:46:01.794Z,20.37
2018-08-07T06:48:30.206Z,21.90
2018-08-07T06:50:58.717Z,24.23
2018-08-07T06:53:27.131Z,34.50
2018-08-07T06:55:55.560Z,21.73
2018-08-07T06:58:24.004Z,19.27
2018-08-07T07:00:52.772Z,20.63
2018-08-07T07:03:21.264Z,20.57
2018-08-07T07:05:49.816Z,19.60
2018-08-07T07:08:18.268Z,17.87
2018-08-07T07:10:46.700Z,18.30
2018-08-07T07:13:15.072Z,20.10
2018-08-07T07:15:43.508Z,18.90
2018-08-07T07:18:11.937Z,17.97
2018-08-07T07:20:40.352Z,18.00
2018-08-07T07:23:08.848Z,18.20
2018-08-07T07:25:37.374Z,23.13
2018-08-07T07:28:05.976Z,19.33
2018-08-07T07:30:34.436Z,18.20
2018-08-07T07:33:02.968Z,17.40
2018-08-07T07:35:31.517Z,17.07
2018-08-07T07:37:59.925Z,19.27
2018-08-07T07:40:28.502Z,16.43
2018-08-07T07:42:56.984Z,18.10
2018-08-07T07:45:25.479Z,18.07
2018-08-07T07:47:53.941Z,16.73
2018-08-07T07:50:22.344Z,18.53
2018-08-07T07:52:50.875Z,16.13
2018-08-07T07:55:19.911Z,16.73
2018-08-07T07:57:49.492Z,15.77
2018-08-07T08:00:22.899Z,26.13
2018-08-07T08:02:52.313Z,16.83
2018-08-07T08:05:21.904Z,15.93
2018-08-07T08:07:51.635Z,15.57
2018-08-07T08:10:20.688Z,14.77
2018-08-07T08:12:50.994Z,15.07
2018-08-07T08:15:19.490Z,15.07
2018-08-07T08:17:48.818Z,15.87
2018-08-07T08:20:23.197Z,15.80
2018-08-07T08:22:52.317Z,15.30
2018-08-07T08:25:20.813Z,19.00
2018-08-07T08:27:49.303Z,14.33
2018-08-07T08:30:20.280Z,13.80
2018-08-07T08:32:48.827Z,14.83
2018-08-07T08:35:19.609Z,13.50
2018-08-07T08:37:48.522Z,14.83
2018-08-07T08:40:18.717Z,13.93
2018-08-07T08:42:47.332Z,12.23
2018-08-07T08:45:19.272Z,12.93
2018-08-07T08:47:49.670Z,14.27
2018-08-07T08:50:19.525Z,11.93
2018-08-07T08:52:48.087Z,13.07
2018-08-07T08:55:16.717Z,12.03
2018-08-07T08:57:45.577Z,12.03
2018-08-07T09:00:17.517Z,11.27
2018-08-07T09:02:46.742Z,17.40
2018-08-07T09:05:15.401Z,13.17
2018-08-07T09:07:44.366Z,11.37
2018-08-07T09:10:16.397Z,11.33
2018-08-07T09:12:44.937Z,11.17
2018-08-07T09:15:13.889Z,11.27
2018-08-07T09:17:42.414Z,12.17
2018-08-07T09:20:13.897Z,10.83
2018-08-07T09:22:42.530Z,10.50
2018-08-07T09:25:19.146Z,10.43
2018-08-07T09:27:47.581Z,10.87
2018-08-07T09:30:18.620Z,20.00
2018-08-07T09:32:48.220Z,9.57
2018-08-07T09:35:27.351Z,9.80
2018-08-07T09:37:56.802Z,10.20
2018-08-07T09:40:25.416Z,10.97
2018-08-07T09:42:58.254Z,12.73
2018-08-07T09:45:33.465Z,9.97
2018-08-07T09:48:04.219Z,9.60
2018-08-07T09:50:33.378Z,9.80
2018-08-07T09:53:02.112Z,8.50
2018-08-07T09:55:31.077Z,9.87
2018-08-07T09:57:59.643Z,8.30
2018-08-07T10:00:33.433Z,8.73
2018-08-07T10:03:03.608Z,9.70
2018-08-07T10:05:50.931Z,8.33
2018-08-07T10:08:20.228Z,8.57
2018-08-07T10:10:50.641Z,8.70
2018-08-07T10:13:19.080Z,9.00
2018-08-07T10:15:47.601Z,9.47
2018-08-07T10:18:16.116Z,10.53
2018-08-07T10:20:44.999Z,8.67
2018-08-07T10:23:13.710Z,8.83
2018-08-07T10:25:42.488Z,8.73
2018-08-07T10:28:11.249Z,7.77
2018-08-07T10:30:45.172Z,8.33
2018-08-07T10:33:14.017Z,7.73
2018-08-07T10:35:42.679Z,7.70
2018-08-07T10:38:11.823Z,7.83
2018-08-07T10:40:40.959Z,6.87
2018-08-07T10:43:09.917Z,6.73
2018-08-07T10:45:38.468Z,6.97
2018-08-07T10:48:07.266Z,7.30
2018-08-07T10:50:36.023Z,6.23
2018-08-07T10:53:04.622Z,6.30
2018-08-07T10:55:33.184Z,12.90
2018-08-07T10:58:02.021Z,6.27
2018-08-07T11:00:32.831Z,6.30
2018-08-07T11:03:02.181Z,6.00
2018-08-07T11:05:31.365Z,4.93
2018-08-07T11:08:00.745Z,5.57
2018-08-07T11:10:29.849Z,5.70
2018-08-07T11:12:58.690Z,5.90
2018-08-07T11:15:31.092Z,5.60
2018-08-07T11:18:00.856Z,5.97
2018-08-07T11:20:31.274Z,5.40
2018-08-07T11:23:01.713Z,5.90
2018-08-07T11:25:31.414Z,5.67
2018-08-07T11:28:00.568Z,5.77
2018-08-07T11:30:30.188Z,5.10
2018-08-07T11:33:00.191Z,6.93
2018-08-07T11:35:29.606Z,5.43
2018-08-07T11:38:00.124Z,5.20
2018-08-07T11:40:28.960Z,4.97
2018-08-07T11:43:02.827Z,4.97
2018-08-07T11:45:31.965Z,4.90
2018-08-07T11:48:00.716Z,5.00
2018-08-07T11:50:30.497Z,5.40
2018-08-07T11:52:59.201Z,5.77
2018-08-07T11:55:27.810Z,8.63
2018-08-07T11:57:56.722Z,5.10
2018-08-07T12:00:27.872Z,5.60
2018-08-07T12:02:56.472Z,5.43
2018-08-07T12:05:25.130Z,4.90
2018-08-07T12:07:53.942Z,5.50
2018-08-07T12:10:22.533Z,5.20
2018-08-07T12:12:51.324Z,5.27
2018-08-07T12:16:27.352Z,4.97
2018-08-07T12:18:55.878Z,6.33
2018-08-07T12:21:24.440Z,4.40
2018-08-07T12:23:52.975Z,4.87
2018-08-07T12:26:21.558Z,5.27
2018-08-07T12:28:50.027Z,5.20
2018-08-07T12:31:18.528Z,5.30
2018-08-07T12:33:47.104Z,5.47
2018-08-07T12:36:15.681Z,5.93
2018-08-07T12:38:44.253Z,5.33
2018-08-07T12:41:12.752Z,5.27
2018-08-07T12:43:41.280Z,4.80
2018-08-07T12:46:09.841Z,6.37
2018-08-07T12:48:38.412Z,5.77
2018-08-07T12:51:07.036Z,5.17
2018-08-07T12:53:35.512Z,5.23
2018-08-07T12:56:04.069Z,5.20
2018-08-07T12:58:32.243Z,11.67
2018-08-07T13:01:00.419Z,5.47
2018-08-07T13:03:28.977Z,5.50
2018-08-07T13:05:57.537Z,5.07
2018-08-07T13:08:26.152Z,4.73
2018-08-07T13:10:54.744Z,5.37
2018-08-07T13:13:23.228Z,4.60
2018-08-07T13:15:51.784Z,3.90
2018-08-07T13:18:20.304Z,3.77
2018-08-07T13:20:48.766Z,3.57
2018-08-07T13:23:17.283Z,3.40
2018-08-07T13:25:45.729Z,3.47
2018-08-07T13:28:14.226Z,3.50
2018-08-07T13:30:42.662Z,3.83
2018-08-07T13:33:11.201Z,3.60
2018-08-07T13:35:39.715Z,3.87
2018-08-07T13:38:08.377Z,3.80
2018-08-07T13:40:36.954Z,4.20
2018-08-07T13:43:05.709Z,4.37
2018-08-07T13:45:34.269Z,4.13
2018-08-07T13:48:02.762Z,4.63
2018-08-07T13:50:31.451Z,5.03
2018-08-07T13:52:59.885Z,4.47
2018-08-07T13:55:28.298Z,9.20
2018-08-07T13:57:56.842Z,5.10
2018-08-07T14:00:27.307Z,4.50
2018-08-07T14:02:56.507Z,5.27
2018-08-07T14:05:25.521Z,4.80
2018-08-07T14:07:55.377Z,4.20
2018-08-07T14:10:25.104Z,4.67
2018-08-07T14:12:53.565Z,4.37
2018-08-07T14:15:23.465Z,4.20
2018-08-07T14:17:52.279Z,4.27
2018-08-07T14:20:21.063Z,4.43
2018-08-07T14:22:49.959Z,5.73
2018-08-07T14:25:26.754Z,4.93
2018-08-07T14:27:55.331Z,4.93
2018-08-07T14:30:25.111Z,5.17
2018-08-07T14:32:53.612Z,4.63
2018-08-07T14:35:22.160Z,4.40
2018-08-07T14:37:51.054Z,9.53
2018-08-07T14:40:22.054Z,5.30
2018-08-07T14:42:51.267Z,5.20
2018-08-07T14:45:21.159Z,8.40
2018-08-07T14:47:50.473Z,5.83
2018-08-07T14:50:20.514Z,5.20
2018-08-07T14:52:49.064Z,5.87
2018-08-07T14:55:17.539Z,5.70
2018-08-07T14:57:46.220Z,5.50
2018-08-07T15:00:19.153Z,5.20
2018-08-07T15:02:47.891Z,5.77
2018-08-07T15:05:16.400Z,6.00
2018-08-07T15:07:45.401Z,5.97
2018-08-07T15:10:16.097Z,5.43
2018-08-07T15:12:44.757Z,5.53
2018-08-07T15:15:15.961Z,5.47
2018-08-07T15:17:44.649Z,7.43
2018-08-07T15:20:14.912Z,7.07
2018-08-07T15:22:44.073Z,5.03
2018-08-07T15:25:14.137Z,5.17
2018-08-07T15:27:42.592Z,5.17
2018-08-07T15:30:28.467Z,5.60
2018-08-07T15:32:57.256Z,4.90
2018-08-07T15:35:27.519Z,4.40
2018-08-07T15:37:56.074Z,4.57
2018-08-07T15:40:24.568Z,4.60
2018-08-07T15:42:53.060Z,3.93
2018-08-07T15:45:23.251Z,4.10
2018-08-07T15:47:52.106Z,4.47
2018-08-07T15:50:21.573Z,4.33
2018-08-07T15:52:53.806Z,4.10
2018-08-07T15:55:23.950Z,3.70
2018-08-07T15:57:52.509Z,3.63
2018-08-07T16:00:26.590Z,4.03
2018-08-07T16:02:55.301Z,3.53
2018-08-07T16:05:23.802Z,3.30
2018-08-07T16:07:53.302Z,3.60
2018-08-07T16:10:22.334Z,3.70
2018-08-07T16:12:52.021Z,3.70
2018-08-07T16:15:20.587Z,4.00
2018-08-07T16:17:49.961Z,4.13
2018-08-07T16:20:18.721Z,7.10
2018-08-07T16:22:47.374Z,4.63
2018-08-07T16:25:17.284Z,4.03
2018-08-07T16:27:46.825Z,3.80
2018-08-07T16:30:19.752Z,3.80
2018-08-07T16:32:48.163Z,3.83
2018-08-07T16:35:17.092Z,4.20
2018-08-07T16:37:45.913Z,3.90
2018-08-07T16:40:16.033Z,4.03
2018-08-07T16:42:44.910Z,3.60
2018-08-07T16:45:15.647Z,3.60
2018-08-07T16:47:44.451Z,4.20
2018-08-07T16:50:15.095Z,3.77
2018-08-07T16:52:43.601Z,6.40
2018-08-07T16:55:12.455Z,3.83
2018-08-07T16:57:41.124Z,3.30
2018-08-07T17:00:11.320Z,3.40
2018-08-07T17:02:40.027Z,3.33
2018-08-07T17:05:11.262Z,7.00
2018-08-07T17:07:39.785Z,3.20
2018-08-07T17:10:11.711Z,3.20
2018-08-07T17:12:40.484Z,3.40
2018-08-07T17:15:09.966Z,3.20
2018-08-07T17:17:40.148Z,4.30
2018-08-07T17:20:10.359Z,4.10
2018-08-07T17:22:40.832Z,5.73
2018-08-07T17:25:11.816Z,4.47
2018-08-07T17:27:40.904Z,3.80
2018-08-07T17:30:13.768Z,4.17
2018-08-07T17:32:44.054Z,4.37
2018-08-07T17:35:17.855Z,4.53
2018-08-07T17:37:48.052Z,4.90
2018-08-07T17:40:18.639Z,3.97
2018-08-07T17:42:47.777Z,5.00
2018-08-07T17:45:16.513Z,4.47
2018-08-07T17:47:45.251Z,4.33
2018-08-07T17:50:17.524Z,5.07
2018-08-07T17:52:46.276Z,5.10
2018-08-07T17:55:14.841Z,4.80
2018-08-07T17:57:43.418Z,4.87
2018-08-07T18:00:14.615Z,4.53
2018-08-07T18:02:43.624Z,5.03
2018-08-07T18:05:12.293Z,5.03
2018-08-07T18:07:42.684Z,5.10
2018-08-07T18:10:12.362Z,4.80
2018-08-07T18:12:41.550Z,4.70
2018-08-07T18:15:13.001Z,4.00
2018-08-07T18:17:42.129Z,5.47
2018-08-07T18:20:15.851Z,4.83
2018-08-07T18:22:44.349Z,4.70
2018-08-07T18:25:13.306Z,4.50
2018-08-07T18:27:43.029Z,4.47
2018-08-07T18:30:14.286Z,4.90
2018-08-07T18:32:43.722Z,5.13
2018-08-07T18:35:14.777Z,5.27
2018-08-07T18:37:43.622Z,5.27
2018-08-07T18:40:12.453Z,4.73
2018-08-07T18:42:41.478Z,5.00
2018-08-07T18:45:11.896Z,5.60
2018-08-07T18:47:41.107Z,5.03
2018-08-07T18:50:12.157Z,5.67
2018-08-07T18:52:40.787Z,5.90
2018-08-07T18:55:12.814Z,5.80
2018-08-07T18:57:42.188Z,5.00
2018-08-07T19:00:13.344Z,5.30
2018-08-07T19:02:42.242Z,5.70
2018-08-07T19:05:13.657Z,5.30
2018-08-07T19:07:42.523Z,5.80
2018-08-07T19:10:12.285Z,6.17
2018-08-07T19:12:40.889Z,7.20
2018-08-07T19:15:10.141Z,6.20
2018-08-07T19:17:38.677Z,8.70
2018-08-07T19:20:07.878Z,6.67
2018-08-07T19:22:36.589Z,6.77
2018-08-07T19:25:06.761Z,7.10
2018-08-07T19:27:35.508Z,6.93
2018-08-07T19:30:05.862Z,6.70
2018-08-07T19:32:35.194Z,5.90
2018-08-07T19:35:03.971Z,6.40
2018-08-07T19:37:32.499Z,6.27
2018-08-07T19:40:01.181Z,5.97
2018-08-07T19:42:29.715Z,12.73
2018-08-07T19:44:58.833Z,6.40
2018-08-07T19:47:27.391Z,6.17
2018-08-07T19:49:55.820Z,6.63
2018-08-07T19:52:24.282Z,6.50
2018-08-07T19:54:53.017Z,5.80
2018-08-07T19:57:21.838Z,7.13
2018-08-07T19:59:50.429Z,6.20
2018-08-07T20:02:19.008Z,7.00
2018-08-07T20:04:47.488Z,6.40
2018-08-07T20:07:16.125Z,6.63
2018-08-07T20:09:44.698Z,5.93
2018-08-07T20:12:13.729Z,6.10
2018-08-07T20:14:42.533Z,5.60
2018-08-07T20:17:11.256Z,6.23
2018-08-07T20:19:39.707Z,6.17
2018-08-07T20:22:13.564Z,6.00
2018-08-07T20:24:42.175Z,7.60
2018-08-07T20:27:10.739Z,6.33
2018-08-07T20:29:39.254Z,6.20
2018-08-07T20:32:10.067Z,5.97
2018-08-07T20:34:39.027Z,6.17
2018-08-07T20:37:07.774Z,6.30
2018-08-07T20:39:36.326Z,6.67
2018-08-07T20:42:04.845Z,7.03
2018-08-07T20:44:33.324Z,6.50
2018-08-07T20:47:01.976Z,6.20
2018-08-07T20:49:30.825Z,6.80
2018-08-07T20:51:59.504Z,6.50
2018-08-07T20:54:28.389Z,6.10
2018-08-07T20:56:56.982Z,5.50
2018-08-07T20:59:25.529Z,6.20
2018-08-07T21:01:53.963Z,7.47
2018-08-07T21:04:23.081Z,5.90
2018-08-07T21:06:51.595Z,8.70
2018-08-07T21:09:19.990Z,6.90
2018-08-07T21:11:48.569Z,5.70
2018-08-07T21:14:17.021Z,5.80
2018-08-07T21:16:45.507Z,8.80
2018-08-07T21:19:14.022Z,6.17
2018-08-07T21:21:42.537Z,5.77
2018-08-07T21:24:11.012Z,6.83
2018-08-07T21:26:39.461Z,5.97
2018-08-07T21:29:07.888Z,5.90
2018-08-07T21:31:36.403Z,6.70
2018-08-07T21:34:04.872Z,6.60
2018-08-07T21:36:33.469Z,6.20
2018-08-07T21:39:01.931Z,5.83
2018-08-07T21:41:30.403Z,9.07
2018-08-07T21:43:58.901Z,5.80
2018-08-07T21:46:27.471Z,6.07
2018-08-07T21:48:56.041Z,9.03
2018-08-07T21:51:24.536Z,5.87
2018-08-07T21:53:53.087Z,6.93
2018-08-07T21:56:21.497Z,6.67
2018-08-07T21:58:50.026Z,7.80
2018-08-07T22:01:18.513Z,7.10
2018-08-07T22:03:47.151Z,10.63
2018-08-07T22:06:15.592Z,6.70
2018-08-07T22:08:44.100Z,11.13
2018-08-07T22:11:12.519Z,6.57
2018-08-07T22:13:41.052Z,7.17
2018-08-07T22:16:09.562Z,8.20
2018-08-07T22:18:38.074Z,7.43
2018-08-07T22:21:06.782Z,6.87
2018-08-07T22:23:35.292Z,9.30
2018-08-07T22:26:03.837Z,6.67
2018-08-07T22:28:32.113Z,7.00
2018-08-07T22:31:00.630Z,6.87
2018-08-07T22:33:29.105Z,6.60
2018-08-07T22:35:57.629Z,7.57
2018-08-07T22:38:26.108Z,7.63
2018-08-07T22:40:54.520Z,7.47
2018-08-07T22:43:22.975Z,6.67
2018-08-07T22:45:51.434Z,9.30
2018-08-07T22:48:56.342Z,7.53
2018-08-07T22:51:24.984Z,7.10
2018-08-07T22:53:53.420Z,7.97
2018-08-07T22:56:21.996Z,6.63
2018-08-07T22:58:50.472Z,7.73
2018-08-07T23:01:19.022Z,12.87
2018-08-07T23:03:47.431Z,7.43
2018-08-07T23:06:15.964Z,9.13
2018-08-07T23:08:44.469Z,8.73
2018-08-07T23:11:12.930Z,11.30
2018-08-07T23:13:41.358Z,8.00
2018-08-07T23:16:09.717Z,6.70
2018-08-07T23:18:38.164Z,10.20
2018-08-07T23:21:06.597Z,6.47
2018-08-07T23:23:35.026Z,7.27
2018-08-07T23:26:03.521Z,7.30
2018-08-07T23:28:31.964Z,8.17
2018-08-07T23:31:00.440Z,6.90
2018-08-07T23:33:28.880Z,7.07
2018-08-07T23:35:57.319Z,7.43
2018-08-07T23:38:25.709Z,7.17
2018-08-07T23:40:54.103Z,7.50
2018-08-07T23:43:22.607Z,7.50
2018-08-07T23:45:51.028Z,6.67
2018-08-07T23:48:19.443Z,7.80
2018-08-07T23:50:47.866Z,8.10
2018-08-07T23:53:16.220Z,8.53
2018-08-07T23:55:44.639Z,9.83
2018-08-07T23:58:13.113Z,8.43
